»·PEaware :: N137AL KBFL-KMHV

N137AL :: KBFL-KMHV

FLIGHT INFORMATION

Flight Status: Arrived
Operator: Privately registered:
United States
More flights under this callsign
Pilot: Aaron K. (32509)
Aircraft: CESSNA 172 SKYHAWK
(C172)
More flights by this aircraft type
Origin: KBFL Meadows
United States
Destination: KMHV Mojave
United States
More flights between these airports :: More routes between these airports
Route:
File this flight plan on PilotEdge
Remarks:
Altitude:
(Current/Filed)
7,500ft
Speed:
(Current/Filed)
110kts
Departed: 10-Jan-21 02:43 PM
Arrived: 10-Jan-21 03:13 PM
Distance/Time
Traveled:
49nm/0:30
Distance/Time
To Go:
Arrived

Flight Plot

Page will automatically refresh every two minutes.


Map Options




Map Legend


Flown Route
Filed Route
Departure Airport
Arrival Airport
Navaid (VOR, NDB)
Fix

Horizontal Profiles

Position Reports

Time Latitude Longitude Heading Altitude Ground
Speed
10-Jan-21 14:13 35.431669 -119.048496 36 499ft 0kts
10-Jan-21 14:14 35.431669 -119.048496 36 499ft 0kts
10-Jan-21 14:16 35.431669 -119.048496 36 499ft 0kts
10-Jan-21 14:16 35.431669 -119.048496 36 499ft 0kts
10-Jan-21 14:17 35.431669 -119.048496 36 499ft 0kts
10-Jan-21 14:19 35.431669 -119.048496 36 499ft 0kts
10-Jan-21 14:24 35.429659 -119.046616 136 495ft 0kts
10-Jan-21 14:25 35.429659 -119.046616 136 495ft 0kts
10-Jan-21 14:26 35.429659 -119.046616 136 495ft 0kts
10-Jan-21 14:27 35.429659 -119.046616 136 495ft 0kts
10-Jan-21 14:28 35.429659 -119.046616 136 495ft 0kts
10-Jan-21 14:29 35.429659 -119.046616 136 495ft 0kts
10-Jan-21 14:30 35.429659 -119.046616 136 495ft 0kts
10-Jan-21 14:31 35.429659 -119.046616 136 495ft 0kts
10-Jan-21 14:32 35.429659 -119.046616 136 495ft 0kts
10-Jan-21 14:33 35.429658 -119.046616 136 495ft 0kts
10-Jan-21 14:34 35.429658 -119.046616 136 495ft 0kts
10-Jan-21 14:35 35.429658 -119.046616 136 495ft 0kts
10-Jan-21 14:36 35.429658 -119.046616 136 495ft 0kts
10-Jan-21 14:37 35.429658 -119.046616 136 495ft 0kts
10-Jan-21 14:38 35.429658 -119.046616 136 495ft 0kts
10-Jan-21 14:39 35.428350 -119.047075 168 489ft 12kts
10-Jan-21 14:40 35.425830 -119.044988 223 480ft 0kts
10-Jan-21 14:41 35.425830 -119.044988 223 480ft 0kts
10-Jan-21 14:42 35.430367 -119.052774 308 667ft 68kts
10-Jan-21 14:43 35.442148 -119.055297 57 1428ft 70kts
10-Jan-21 14:44 35.429590 -119.034507 109 2070ft 88kts
10-Jan-21 14:45 35.417668 -119.008183 114 2848ft 88kts
10-Jan-21 14:46 35.406239 -118.980744 112 3555ft 92kts
10-Jan-21 14:47 35.393061 -118.948758 113 3955ft 118kts
10-Jan-21 14:48 35.378098 -118.912865 113 4453ft 117kts
10-Jan-21 14:49 35.363388 -118.877350 113 4954ft 117kts
10-Jan-21 14:50 35.348685 -118.841877 113 5456ft 116kts
10-Jan-21 14:51 35.334047 -118.806613 113 5958ft 116kts
10-Jan-21 14:52 35.319410 -118.771389 113 6461ft 115kts
10-Jan-21 14:53 35.304817 -118.736307 113 6965ft 115kts
10-Jan-21 14:54 35.290115 -118.700978 113 7387ft 122kts
10-Jan-21 14:55 35.274649 -118.664096 114 7497ft 123kts
10-Jan-21 14:56 35.259135 -118.626812 114 7504ft 122kts
10-Jan-21 14:57 35.243634 -118.589676 114 7511ft 122kts
10-Jan-21 14:58 35.224103 -118.555539 131 7519ft 123kts
10-Jan-21 14:59 35.199679 -118.523389 131 7268ft 130kts
10-Jan-21 15:00 35.174986 -118.491214 131 6976ft 129kts
10-Jan-21 15:01 35.150527 -118.459351 131 6684ft 127kts
10-Jan-21 15:02 35.126853 -118.428510 131 6591ft 123kts
10-Jan-21 15:03 35.112292 -118.390575 108 6605ft 127kts
10-Jan-21 15:04 35.102565 -118.348832 102 6615ft 128kts
10-Jan-21 15:05 35.093151 -118.306458 102 6376ft 128kts
10-Jan-21 15:06 35.083551 -118.263131 102 5795ft 133kts
10-Jan-21 15:07 35.074580 -118.218317 84 4898ft 143kts
10-Jan-21 15:08 35.079036 -118.171802 92 4167ft 127kts
10-Jan-21 15:09 35.076725 -118.134924 96 3954ft 84kts
10-Jan-21 15:10 35.062702 -118.122712 216 3314ft 68kts
10-Jan-21 15:11 35.059147 -118.143935 272 2754ft 54kts
10-Jan-21 15:12 35.059119 -118.157246 241 2766ft 22kts

Navigation Log

Ident Type
Flight plan parsing failed, navigation log unavailable